Terminal Aerodrome Forecast
Issued by NWS

Home | Current Version | Previous Version | Text Only | Print | Product List | Glossary On
Versions: 1 2 3 4 5 6 7 8 9 10 11 12 13 14 15 16 17 18 19
000
FTUS44 KLZK 191300 AAA
TAFPBF
TAF AMD
KPBF 191327Z 1913/2012 28006KT P6SM SCT006 OVC060
      TEMPO 1914/1917 -SHRA OVC012
     FM191700 20007KT P6SM SCT015 BKN250
     FM200300 20009KT 5SM TSRA BKN025CB OVC070
     FM200700 28010KT P6SM BKN025=

USA.gov is the U.S. government's official web portal to all federal, state and local government web resources and services.